Time;durP1;ratioP1;P1;durP2;ratioP2;P2;SDS_P1;SDS_P2;PMS_P1;PMS_P2;Temp;Humidity;BMP_temperature;BMP_pressure;BME280_temperature;BME280_humidity;BME280_pressure;Samples;Min_cycle;Max_cycle;Signal;HPM_P1;HPM_P2
2024/03/11 00:00:24;;;;;;;11.47;6.60;;;5.40;99.90;;;;;;5100320;28;20194;-81
2024/03/11 00:03:12;;;;;;;12.73;6.17;;;5.40;99.90;;;;;;5114723;28;20234;-81
2024/03/11 00:06:02;;;;;;;10.97;6.00;;;5.40;99.90;;;;;;5114690;28;20199;-80
2024/03/11 00:08:52;;;;;;;12.27;6.30;;;5.40;99.90;;;;;;5100565;28;20195;-81
2024/03/11 00:11:39;;;;;;;13.57;6.37;;;5.40;99.90;;;;;;5113914;28;20592;-79
2024/03/11 00:14:30;;;;;;;11.33;5.73;;;5.40;99.90;;;;;;5114758;28;20702;-82
2024/03/11 00:17:19;;;;;;;11.37;6.50;;;5.40;99.90;;;;;;5114659;28;20223;-81
2024/03/11 00:20:09;;;;;;;9.93;5.60;;;5.40;99.90;;;;;;5115239;28;20254;-80
2024/03/11 00:22:57;;;;;;;10.27;5.77;;;5.40;99.90;;;;;;5114286;28;20200;-79
2024/03/11 00:25:44;;;;;;;12.63;6.33;;;5.40;99.90;;;;;;5115258;28;20224;-79
2024/03/11 00:28:33;;;;;;;10.50;5.93;;;5.40;99.90;;;;;;5114776;28;20202;-79
2024/03/11 00:31:21;;;;;;;11.43;6.13;;;5.40;99.90;;;;;;5115575;28;20272;-79
2024/03/11 00:34:09;;;;;;;10.53;5.33;;;5.30;99.90;;;;;;5112955;28;20223;-79
2024/03/11 00:36:56;;;;;;;12.17;6.03;;;5.40;99.90;;;;;;5113485;28;20761;-79
2024/03/11 00:39:44;;;;;;;11.60;5.97;;;5.30;99.90;;;;;;5114040;28;20319;-80
2024/03/11 00:42:34;;;;;;;13.27;6.00;;;5.40;99.90;;;;;;5113693;28;20202;-79
2024/03/11 00:45:23;;;;;;;12.33;6.57;;;5.40;99.90;;;;;;5098179;28;20276;-80
2024/03/11 00:48:11;;;;;;;11.33;5.93;;;5.30;99.90;;;;;;5113613;28;20311;-81
2024/03/11 00:50:59;;;;;;;10.67;5.87;;;5.40;99.90;;;;;;5114228;28;20622;-80
2024/03/11 00:53:47;;;;;;;14.03;6.33;;;5.40;99.90;;;;;;5112782;28;20232;-80
2024/03/11 00:56:35;;;;;;;12.97;5.80;;;5.40;99.90;;;;;;5112457;28;20190;-79
2024/03/11 00:59:23;;;;;;;12.13;5.77;;;5.40;99.90;;;;;;5112887;28;20193;-78
2024/03/11 01:02:10;;;;;;;12.80;6.30;;;5.40;99.90;;;;;;5114336;28;20193;-79
2024/03/11 01:04:57;;;;;;;10.30;5.87;;;5.40;99.90;;;;;;5112738;28;20219;-78
2024/03/11 01:07:45;;;;;;;9.40;5.73;;;5.40;99.90;;;;;;5112212;28;20278;-78
2024/03/11 01:10:33;;;;;;;10.87;5.90;;;5.40;99.90;;;;;;5113957;28;20196;-79
2024/03/11 01:13:21;;;;;;;12.33;5.73;;;5.40;99.90;;;;;;5114089;28;20199;-79
2024/03/11 01:16:10;;;;;;;12.23;5.90;;;5.40;99.90;;;;;;5112719;28;20555;-79
2024/03/11 01:18:58;;;;;;;10.10;5.80;;;5.40;99.90;;;;;;5113237;28;20299;-80
2024/03/11 01:21:48;;;;;;;11.00;6.13;;;5.40;99.90;;;;;;5113726;28;20208;-79
2024/03/11 01:24:35;;;;;;;14.90;6.40;;;5.40;99.90;;;;;;5097676;28;20206;-80
2024/03/11 01:27:25;;;;;;;12.10;5.93;;;5.40;99.90;;;;;;5113391;28;20203;-80
2024/03/11 01:30:14;;;;;;;12.97;6.20;;;5.40;99.90;;;;;;5112917;28;20275;-80
2024/03/11 01:33:04;;;;;;;12.20;6.20;;;5.40;99.90;;;;;;5112398;28;20279;-79
2024/03/11 01:35:53;;;;;;;10.27;5.70;;;5.30;99.90;;;;;;5113386;28;20214;-81
2024/03/11 01:38:41;;;;;;;11.20;5.93;;;5.30;99.90;;;;;;5112803;28;20652;-80
2024/03/11 01:41:28;;;;;;;11.43;6.00;;;5.40;99.90;;;;;;5111836;28;20197;-80
2024/03/11 01:44:17;;;;;;;11.80;5.87;;;5.30;99.90;;;;;;5096920;28;20627;-80
2024/03/11 01:47:04;;;;;;;12.97;5.80;;;5.30;99.90;;;;;;5113298;28;20201;-80
2024/03/11 01:49:53;;;;;;;11.87;5.90;;;5.30;99.90;;;;;;5111425;28;20690;-80
2024/03/11 01:52:45;;;;;;;14.33;6.70;;;5.20;99.90;;;;;;5112930;28;20305;-80
2024/03/11 01:55:34;;;;;;;12.57;6.20;;;5.30;99.90;;;;;;5111683;28;20684;-80
2024/03/11 01:58:23;;;;;;;12.50;5.80;;;5.20;99.90;;;;;;5111457;28;20294;-80
2024/03/11 02:01:10;;;;;;;12.37;6.33;;;5.30;99.90;;;;;;5112412;28;20678;-80
2024/03/11 02:03:58;;;;;;;11.60;6.23;;;5.20;99.90;;;;;;5111717;28;20214;-80
2024/03/11 02:06:46;;;;;;;12.03;6.20;;;5.20;99.90;;;;;;5112121;28;20195;-80
2024/03/11 02:09:34;;;;;;;14.00;6.10;;;5.20;99.90;;;;;;5097281;28;20263;-79
2024/03/11 02:12:21;;;;;;;11.43;6.50;;;5.20;99.90;;;;;;5111971;28;20199;-79
2024/03/11 02:15:10;;;;;;;11.37;6.10;;;5.10;99.90;;;;;;5112095;28;20218;-81
2024/03/11 02:17:58;;;;;;;12.60;5.80;;;5.10;99.90;;;;;;5096686;28;20198;-81
2024/03/11 02:20:47;;;;;;;12.37;5.93;;;5.10;99.90;;;;;;5111657;28;20757;-81
2024/03/11 02:23:35;;;;;;;14.73;6.20;;;5.10;99.90;;;;;;5112076;28;20203;-81
2024/03/11 02:26:23;;;;;;;13.07;6.63;;;5.10;99.90;;;;;;5111462;28;20201;-81
2024/03/11 02:29:10;;;;;;;13.13;6.33;;;5.10;99.90;;;;;;5111540;28;20210;-81
2024/03/11 02:31:59;;;;;;;11.53;6.30;;;5.10;99.90;;;;;;5096364;28;20267;-81
2024/03/11 02:34:46;;;;;;;12.30;6.30;;;5.10;99.90;;;;;;5112154;28;20217;-80
2024/03/11 02:37:34;;;;;;;11.83;6.30;;;5.10;99.90;;;;;;5111761;28;20200;-81
2024/03/11 02:40:26;;;;;;;15.27;6.37;;;5.00;99.90;;;;;;5098799;28;20206;-81
2024/03/11 02:43:16;;;;;;;11.00;6.03;;;5.10;99.90;;;;;;5110830;28;20195;-81
2024/03/11 02:46:04;;;;;;;14.47;6.53;;;5.10;99.90;;;;;;5111494;28;20200;-81
2024/03/11 02:48:51;;;;;;;11.30;6.07;;;5.00;99.90;;;;;;5111613;28;20219;-82
2024/03/11 02:51:38;;;;;;;12.33;6.43;;;5.00;99.90;;;;;;5111240;28;20197;-81
2024/03/11 02:54:29;;;;;;;11.97;6.50;;;5.00;99.90;;;;;;5112396;28;20229;-80
2024/03/11 02:57:19;;;;;;;15.60;6.93;;;5.00;99.90;;;;;;5111195;28;20641;-79
2024/03/11 03:00:10;;;;;;;12.80;6.33;;;5.00;99.90;;;;;;5111517;28;20201;-79
2024/03/11 03:02:58;;;;;;;11.57;6.30;;;5.00;99.90;;;;;;5110932;28;20189;-78
2024/03/11 03:05:46;;;;;;;13.87;6.37;;;5.00;99.90;;;;;;5111065;28;20272;-79
2024/03/11 03:08:35;;;;;;;12.50;5.80;;;4.90;99.90;;;;;;5110998;28;20203;-79
2024/03/11 03:11:23;;;;;;;11.33;6.23;;;4.90;99.90;;;;;;5096001;28;20234;-79
2024/03/11 03:14:11;;;;;;;12.37;6.47;;;4.90;99.90;;;;;;5111147;28;20191;-79
2024/03/11 03:16:58;;;;;;;12.70;6.27;;;4.90;99.90;;;;;;5100795;28;20281;-79
2024/03/11 03:19:46;;;;;;;12.40;6.37;;;4.90;99.90;;;;;;5099847;28;20208;-77
2024/03/11 03:22:33;;;;;;;14.93;7.10;;;4.90;99.90;;;;;;5115993;28;20191;-77
2024/03/11 03:25:20;;;;;;;14.00;6.20;;;4.90;99.90;;;;;;5116134;28;20238;-82
2024/03/11 03:28:07;;;;;;;12.03;6.30;;;4.90;99.90;;;;;;5115246;28;20239;-81
2024/03/11 03:30:58;;;;;;;12.70;6.40;;;4.90;99.90;;;;;;5115882;28;20185;-80
2024/03/11 03:33:45;;;;;;;12.63;6.03;;;4.90;99.90;;;;;;5115346;28;20257;-80
2024/03/11 03:36:35;;;;;;;13.93;6.13;;;4.90;99.90;;;;;;5115396;28;20218;-80
2024/03/11 03:39:24;;;;;;;10.80;6.40;;;4.80;99.90;;;;;;5115113;28;20195;-80
2024/03/11 03:42:11;;;;;;;12.73;6.00;;;4.80;99.90;;;;;;5114223;28;20519;-80
2024/03/11 03:44:58;;;;;;;11.43;5.83;;;4.80;99.90;;;;;;5114954;28;20277;-79
2024/03/11 03:47:46;;;;;;;12.53;6.37;;;4.80;99.90;;;;;;5114354;28;20197;-79
2024/03/11 03:50:34;;;;;;;11.30;6.07;;;4.80;99.90;;;;;;5115448;28;20248;-79
2024/03/11 03:53:21;;;;;;;10.73;5.73;;;4.70;99.90;;;;;;5114955;28;20236;-79
2024/03/11 03:56:10;;;;;;;12.00;6.13;;;4.70;99.90;;;;;;5114333;28;20213;-80
2024/03/11 03:58:57;;;;;;;12.53;6.70;;;4.70;99.90;;;;;;5114895;28;20204;-81
2024/03/11 04:01:45;;;;;;;13.03;6.03;;;4.70;99.90;;;;;;5114090;28;20273;-81
2024/03/11 04:04:32;;;;;;;12.87;5.93;;;4.70;99.90;;;;;;5099076;28;20210;-81
2024/03/11 04:07:19;;;;;;;11.83;6.17;;;4.70;99.90;;;;;;5114789;28;20190;-81
2024/03/11 04:10:12;;;;;;;10.37;5.80;;;4.70;99.90;;;;;;5114102;28;20204;-81
2024/03/11 04:13:00;;;;;;;10.00;5.97;;;4.70;99.90;;;;;;5113627;28;20326;-79
2024/03/11 04:15:48;;;;;;;12.33;6.33;;;4.70;99.90;;;;;;5113428;28;20223;-79
2024/03/11 04:18:35;;;;;;;12.07;6.63;;;4.70;99.90;;;;;;5114448;28;20681;-79
2024/03/11 04:21:23;;;;;;;13.60;6.40;;;4.70;99.90;;;;;;5113837;28;20193;-79
2024/03/11 04:24:11;;;;;;;11.37;6.17;;;4.70;99.90;;;;;;5114870;28;20603;-79
2024/03/11 04:27:02;;;;;;;12.33;6.37;;;4.70;99.90;;;;;;5114591;28;20198;-79
2024/03/11 04:29:50;;;;;;;12.93;6.60;;;4.70;99.90;;;;;;5114013;28;20270;-79
2024/03/11 04:32:40;;;;;;;13.43;6.13;;;4.70;99.90;;;;;;5099085;28;20214;-80
2024/03/11 04:35:30;;;;;;;11.80;5.87;;;4.70;99.90;;;;;;5112861;28;20232;-79
2024/03/11 04:38:20;;;;;;;12.07;6.40;;;4.70;99.90;;;;;;5114097;28;20618;-81
2024/03/11 04:41:07;;;;;;;13.97;6.30;;;4.70;99.90;;;;;;5114615;28;20596;-79
2024/03/11 04:43:54;;;;;;;13.70;6.37;;;4.70;99.90;;;;;;5113838;28;20198;-79
2024/03/11 04:46:42;;;;;;;12.10;6.40;;;4.70;99.90;;;;;;5114109;28;20190;-79
2024/03/11 04:49:29;;;;;;;15.63;6.97;;;4.70;99.90;;;;;;5113709;28;20659;-79
2024/03/11 04:52:17;;;;;;;13.33;6.80;;;4.70;99.90;;;;;;5112443;28;20196;-80
2024/03/11 04:55:06;;;;;;;13.47;6.07;;;4.70;99.90;;;;;;5114230;28;20316;-80
2024/03/11 04:57:54;;;;;;;13.40;6.17;;;4.70;99.90;;;;;;5113765;28;20202;-81
2024/03/11 05:00:42;;;;;;;12.30;6.37;;;4.60;99.90;;;;;;5112734;28;20194;-80
2024/03/11 05:03:29;;;;;;;13.80;6.53;;;4.60;99.90;;;;;;5113585;28;20217;-81
2024/03/11 05:06:18;;;;;;;13.37;6.20;;;4.60;99.90;;;;;;5113379;28;20189;-81
2024/03/11 05:09:06;;;;;;;12.67;6.53;;;4.60;99.90;;;;;;5113493;28;20673;-80
2024/03/11 05:11:54;;;;;;;11.13;6.20;;;4.60;99.90;;;;;;5113291;28;20192;-80
2024/03/11 05:14:41;;;;;;;12.93;6.30;;;4.60;99.90;;;;;;5114066;28;20224;-81
2024/03/11 05:17:30;;;;;;;10.97;6.27;;;4.60;99.90;;;;;;5114064;28;20186;-80
2024/03/11 05:20:18;;;;;;;13.20;6.33;;;4.60;99.90;;;;;;5113090;28;20226;-82
2024/03/11 05:23:06;;;;;;;12.80;6.20;;;4.60;99.90;;;;;;5114042;28;20189;-81
2024/03/11 05:25:54;;;;;;;12.20;6.30;;;4.60;99.90;;;;;;5113164;28;20616;-82
2024/03/11 05:28:41;;;;;;;13.47;6.40;;;4.50;99.90;;;;;;5113626;28;20569;-82
2024/03/11 05:31:29;;;;;;;14.00;6.20;;;4.50;99.90;;;;;;5097453;28;20206;-79
2024/03/11 05:34:16;;;;;;;11.50;6.63;;;4.50;99.90;;;;;;5112826;28;20227;-76
2024/03/11 05:37:06;;;;;;;12.63;6.63;;;4.50;99.90;;;;;;5112387;28;20270;-76
2024/03/11 05:39:54;;;;;;;12.90;6.87;;;4.50;99.90;;;;;;5112663;28;20193;-76
2024/03/11 05:42:42;;;;;;;12.40;6.60;;;4.40;99.90;;;;;;5112759;28;20201;-75
2024/03/11 05:45:29;;;;;;;12.20;6.23;;;4.50;99.90;;;;;;5111855;28;20278;-76
2024/03/11 05:48:19;;;;;;;11.67;6.40;;;4.40;99.90;;;;;;5113372;28;20287;-75
2024/03/11 05:51:07;;;;;;;17.10;6.87;;;4.40;99.90;;;;;;5112501;28;20708;-76
2024/03/11 05:53:56;;;;;;;16.13;6.67;;;4.50;99.90;;;;;;5112129;28;20309;-76
2024/03/11 05:56:56;;;;;;;12.83;6.80;;;4.50;99.90;;;;;;5113085;28;20269;-75
2024/03/11 05:59:43;;;;;;;14.43;6.60;;;4.50;99.90;;;;;;5113163;28;20194;-76
2024/03/11 06:02:31;;;;;;;12.83;6.83;;;4.50;99.90;;;;;;5112675;28;20278;-76
2024/03/11 06:05:19;;;;;;;13.97;6.73;;;4.50;99.90;;;;;;5111819;28;20250;-76
2024/03/11 06:08:07;;;;;;;18.67;7.13;;;4.50;99.90;;;;;;5096829;28;20198;-76
2024/03/11 06:10:54;;;;;;;15.50;7.53;;;4.60;99.90;;;;;;5098178;28;20201;-76
2024/03/11 06:13:42;;;;;;;12.17;6.63;;;4.60;99.90;;;;;;5112778;28;20197;-76
2024/03/11 06:16:29;;;;;;;16.10;7.30;;;4.50;99.90;;;;;;5115584;28;20815;-73
2024/03/11 06:19:17;;;;;;;13.00;7.17;;;4.60;99.90;;;;;;5114562;28;20293;-75
2024/03/11 06:22:05;;;;;;;13.17;7.37;;;4.50;99.90;;;;;;5114295;28;20264;-74
2024/03/11 06:24:52;;;;;;;14.83;7.43;;;4.50;99.90;;;;;;5115536;28;20196;-75
2024/03/11 06:27:40;;;;;;;15.50;7.37;;;4.50;99.90;;;;;;5112438;28;20651;-75
2024/03/11 06:30:27;;;;;;;15.03;7.13;;;4.40;99.90;;;;;;5097678;28;20185;-75
2024/03/11 06:33:16;;;;;;;14.03;7.23;;;4.50;99.90;;;;;;5111278;28;20213;-76
2024/03/11 06:36:04;;;;;;;14.33;6.63;;;4.50;99.90;;;;;;5111661;28;20348;-76
2024/03/11 06:38:53;;;;;;;13.20;7.20;;;4.50;99.90;;;;;;5111816;28;20332;-77
2024/03/11 06:41:41;;;;;;;13.27;7.43;;;4.50;99.90;;;;;;5112615;28;20197;-77
2024/03/11 06:44:31;;;;;;;11.83;6.97;;;4.50;99.90;;;;;;5111894;28;20377;-76
2024/03/11 06:47:27;;;;;;;16.50;7.33;;;4.60;99.90;;;;;;5111581;28;20194;-77
2024/03/11 06:50:15;;;;;;;14.30;7.70;;;4.60;99.90;;;;;;5097432;28;20276;-77
2024/03/11 06:53:04;;;;;;;16.43;7.47;;;4.60;99.90;;;;;;5111410;28;20283;-76
2024/03/11 06:55:51;;;;;;;14.53;7.27;;;4.60;99.90;;;;;;5111601;28;20223;-76
2024/03/11 06:58:38;;;;;;;14.00;7.80;;;4.60;99.90;;;;;;5111712;28;20221;-76
2024/03/11 07:01:29;;;;;;;14.60;8.10;;;4.50;99.90;;;;;;5111738;28;20320;-76
2024/03/11 07:04:17;;;;;;;15.93;7.47;;;4.60;99.90;;;;;;5111314;28;20244;-76
2024/03/11 07:07:06;;;;;;;16.67;7.90;;;4.40;99.90;;;;;;5111268;28;20226;-76
2024/03/11 07:09:53;;;;;;;18.60;8.23;;;4.40;99.90;;;;;;5111753;28;20207;-76
2024/03/11 07:12:42;;;;;;;16.67;8.40;;;4.40;99.90;;;;;;5111428;28;20229;-76
2024/03/11 07:15:29;;;;;;;21.63;8.23;;;4.40;99.90;;;;;;5111851;28;20589;-76
2024/03/11 07:18:16;;;;;;;15.73;8.10;;;4.40;99.90;;;;;;5111273;28;20339;-76
2024/03/11 07:21:06;;;;;;;14.47;8.00;;;4.30;99.90;;;;;;5097064;28;20200;-76
2024/03/11 07:23:55;;;;;;;14.57;7.33;;;4.30;99.90;;;;;;5111130;28;20190;-76
2024/03/11 07:26:42;;;;;;;17.53;7.80;;;4.20;99.90;;;;;;5111066;28;20200;-76
2024/03/11 07:29:30;;;;;;;17.77;8.80;;;4.10;99.90;;;;;;5111790;28;20543;-76
2024/03/11 07:32:18;;;;;;;16.40;8.60;;;4.10;99.90;;;;;;5111477;28;20189;-76
2024/03/11 07:35:06;;;;;;;16.17;8.10;;;4.00;99.90;;;;;;5112017;28;20844;-76
2024/03/11 07:37:53;;;;;;;17.77;8.60;;;4.00;99.90;;;;;;5111865;28;20634;-76
2024/03/11 07:40:41;;;;;;;17.97;8.30;;;4.00;99.90;;;;;;5111311;28;20222;-76
2024/03/11 07:43:31;;;;;;;15.63;9.20;;;4.00;99.90;;;;;;5110908;28;20192;-76
2024/03/11 07:46:19;;;;;;;17.40;9.07;;;3.90;99.90;;;;;;5111229;28;20195;-76
2024/03/11 07:49:11;;;;;;;19.47;9.03;;;3.90;99.90;;;;;;5111107;28;20214;-76
2024/03/11 07:51:59;;;;;;;16.27;8.60;;;3.80;99.90;;;;;;5110554;28;20194;-76
2024/03/11 07:54:47;;;;;;;20.70;9.30;;;3.80;99.90;;;;;;5110446;28;20200;-76
2024/03/11 07:57:37;;;;;;;17.40;8.53;;;3.80;99.90;;;;;;5111484;28;20300;-76
2024/03/11 08:00:31;;;;;;;17.13;9.20;;;3.70;99.90;;;;;;5110945;28;20202;-77
2024/03/11 08:03:19;;;;;;;18.50;8.77;;;3.70;99.90;;;;;;5098941;28;20189;-76
2024/03/11 08:06:08;;;;;;;18.07;8.97;;;3.70;99.90;;;;;;5114899;28;20195;-76
2024/03/11 08:08:55;;;;;;;17.33;8.77;;;3.70;99.90;;;;;;5100915;28;20198;-76
2024/03/11 08:11:43;;;;;;;19.43;8.93;;;3.80;99.90;;;;;;5117783;28;20191;-77
2024/03/11 08:14:31;;;;;;;15.77;8.73;;;3.80;99.90;;;;;;5114536;28;20204;-77
2024/03/11 08:17:19;;;;;;;17.33;9.20;;;3.80;99.90;;;;;;5114386;28;20339;-77
2024/03/11 08:20:10;;;;;;;15.83;8.43;;;3.90;99.90;;;;;;5114924;28;20293;-77
2024/03/11 08:22:58;;;;;;;16.27;8.23;;;4.00;99.90;;;;;;5112958;28;20376;-77
2024/03/11 08:25:47;;;;;;;16.63;8.63;;;4.00;99.90;;;;;;5113286;28;20195;-77
2024/03/11 08:28:39;;;;;;;17.60;8.97;;;4.00;99.90;;;;;;5114330;28;20212;-77
2024/03/11 08:31:28;;;;;;;17.33;8.83;;;4.10;99.90;;;;;;5115026;28;20562;-77
2024/03/11 08:34:16;;;;;;;17.10;9.07;;;4.20;99.90;;;;;;5114074;28;20236;-77
2024/03/11 08:37:04;;;;;;;16.13;8.50;;;4.40;99.90;;;;;;5113574;28;20217;-78
2024/03/11 08:39:51;;;;;;;16.10;8.37;;;4.50;99.90;;;;;;5114899;28;20206;-77
2024/03/11 08:42:39;;;;;;;19.70;8.83;;;4.50;99.90;;;;;;5112665;28;20674;-78
2024/03/11 08:45:32;;;;;;;19.20;9.17;;;4.50;99.90;;;;;;5113265;28;20195;-77
2024/03/11 08:48:19;;;;;;;16.53;8.83;;;4.60;99.90;;;;;;5113871;28;20193;-78
2024/03/11 08:51:06;;;;;;;17.17;9.03;;;4.60;99.90;;;;;;5114250;28;20186;-78
2024/03/11 08:53:54;;;;;;;16.67;9.00;;;4.70;99.90;;;;;;5113679;28;20220;-77
2024/03/11 08:56:45;;;;;;;16.33;8.57;;;4.80;99.90;;;;;;5114212;28;20219;-77
2024/03/11 08:59:34;;;;;;;17.77;9.27;;;4.70;99.90;;;;;;5113887;28;20211;-77
2024/03/11 09:02:22;;;;;;;19.27;9.00;;;4.80;99.90;;;;;;5097891;28;20201;-77
2024/03/11 09:05:12;;;;;;;16.70;8.80;;;4.80;99.90;;;;;;5098902;28;20236;-77
2024/03/11 09:08:03;;;;;;;16.63;9.00;;;4.90;99.90;;;;;;5113759;28;20212;-78
2024/03/11 09:10:51;;;;;;;16.80;9.07;;;4.90;99.90;;;;;;5113874;28;20186;-77
2024/03/11 09:13:40;;;;;;;19.03;9.77;;;4.90;99.90;;;;;;5085860;28;20564;-77
2024/03/11 09:16:27;;;;;;;18.63;9.27;;;4.90;99.90;;;;;;5113595;28;20225;-77
2024/03/11 09:19:15;;;;;;;18.17;8.87;;;5.00;99.90;;;;;;5112725;28;20214;-77
2024/03/11 09:22:02;;;;;;;17.30;9.00;;;5.00;99.90;;;;;;5113874;28;20196;-77
2024/03/11 09:24:50;;;;;;;17.53;9.27;;;5.00;99.90;;;;;;5113957;28;20193;-77
2024/03/11 09:27:37;;;;;;;19.60;9.50;;;5.00;99.90;;;;;;5113494;28;20202;-77
2024/03/11 09:30:28;;;;;;;18.20;9.17;;;5.00;99.90;;;;;;5111828;28;20202;-77
2024/03/11 09:33:16;;;;;;;15.90;8.83;;;4.90;99.90;;;;;;5113194;28;20189;-77
2024/03/11 09:36:03;;;;;;;21.67;9.00;;;4.90;99.90;;;;;;5112677;28;20680;-76
2024/03/11 09:38:51;;;;;;;15.80;8.97;;;4.90;99.90;;;;;;5112414;28;20258;-76
2024/03/11 09:41:48;;;;;;;16.70;9.33;;;4.90;99.90;;;;;;5113369;28;20239;-77
2024/03/11 09:44:36;;;;;;;17.17;9.93;;;5.00;99.90;;;;;;5112828;28;20210;-76
2024/03/11 09:47:24;;;;;;;17.73;9.43;;;5.00;99.90;;;;;;5111928;28;20203;-77
2024/03/11 09:50:14;;;;;;;17.17;9.27;;;5.00;99.90;;;;;;5097167;28;20333;-76
2024/03/11 09:53:06;;;;;;;20.30;9.37;;;5.00;99.90;;;;;;5112994;28;20238;-76
2024/03/11 09:55:55;;;;;;;18.53;9.40;;;5.00;99.90;;;;;;5098567;28;20197;-77
2024/03/11 09:58:47;;;;;;;14.37;8.87;;;5.00;99.90;;;;;;5111321;28;20244;-77
2024/03/11 10:01:36;;;;;;;18.07;9.93;;;5.00;99.90;;;;;;5096865;28;20242;-77
2024/03/11 10:04:26;;;;;;;19.77;9.57;;;4.90;99.90;;;;;;5112833;28;20221;-76
2024/03/11 10:07:14;;;;;;;18.30;8.77;;;4.80;99.90;;;;;;5111876;28;20189;-77
2024/03/11 10:10:10;;;;;;;19.43;9.93;;;4.70;99.90;;;;;;5111282;28;20278;-77
2024/03/11 10:13:04;;;;;;;19.03;8.80;;;4.60;99.90;;;;;;5097545;28;20252;-77
2024/03/11 10:15:52;;;;;;;17.60;9.63;;;4.40;99.90;;;;;;5111686;28;20193;-77
2024/03/11 10:18:39;;;;;;;19.43;9.17;;;4.50;99.90;;;;;;5112742;28;20225;-77
2024/03/11 10:21:28;;;;;;;17.63;9.80;;;4.40;99.90;;;;;;5112218;28;20192;-77
2024/03/11 10:24:18;;;;;;;19.53;9.50;;;4.30;99.90;;;;;;5112314;28;20193;-77
2024/03/11 10:27:22;;;;;;;20.10;10.67;;;4.20;99.90;;;;;;5111833;28;20194;-77
2024/03/11 10:30:25;;;;;;;18.97;10.23;;;4.20;99.90;;;;;;5113088;28;20702;-78
2024/03/11 10:33:12;;;;;;;17.70;10.20;;;4.20;99.90;;;;;;5113793;27;20231;-78
2024/03/11 10:36:07;;;;;;;20.90;10.57;;;4.30;99.90;;;;;;5112574;28;20194;-78
2024/03/11 10:38:54;;;;;;;22.43;10.60;;;4.20;99.90;;;;;;5097398;28;20276;-78
2024/03/11 10:41:42;;;;;;;21.97;10.90;;;4.30;99.90;;;;;;5096909;28;20338;-78
2024/03/11 10:44:30;;;;;;;21.17;10.37;;;4.40;99.90;;;;;;5111828;28;20733;-78
2024/03/11 10:47:18;;;;;;;19.27;10.83;;;4.40;99.90;;;;;;5097396;28;20206;-78
2024/03/11 10:50:06;;;;;;;21.33;10.50;;;4.40;99.90;;;;;;5110890;28;20679;-78
2024/03/11 10:52:57;;;;;;;19.93;10.70;;;4.40;99.90;;;;;;5111696;28;20224;-78
2024/03/11 10:55:49;;;;;;;21.33;10.83;;;4.50;99.90;;;;;;5111641;28;20631;-78
2024/03/11 10:58:42;;;;;;;20.13;10.63;;;4.60;99.90;;;;;;5097411;28;20338;-78
2024/03/11 11:01:33;;;;;;;22.40;10.57;;;4.60;99.90;;;;;;5111437;28;20541;-78
2024/03/11 11:04:28;;;;;;;19.50;10.77;;;4.60;99.90;;;;;;5097360;28;20220;-78
2024/03/11 11:07:20;;;;;;;22.33;9.87;;;4.60;99.90;;;;;;5111374;28;20186;-78
2024/03/11 11:10:11;;;;;;;22.37;10.90;;;4.60;99.90;;;;;;5111799;28;20313;-78
2024/03/11 11:13:01;;;;;;;19.90;10.80;;;4.70;99.90;;;;;;5097039;28;20189;-77
2024/03/11 11:15:50;;;;;;;19.00;9.97;;;4.80;99.90;;;;;;5083998;28;20694;-78
2024/03/11 11:18:39;;;;;;;21.53;11.50;;;4.70;99.90;;;;;;5096999;28;20621;-78
2024/03/11 11:21:29;;;;;;;21.90;10.83;;;4.80;99.90;;;;;;5111181;28;20203;-77
2024/03/11 11:24:31;;;;;;;19.03;11.03;;;4.90;99.90;;;;;;5111290;28;20193;-78
2024/03/11 11:27:27;;;;;;;19.60;10.87;;;4.90;99.90;;;;;;5111268;28;20588;-79
2024/03/11 11:30:17;;;;;;;20.67;10.87;;;4.90;99.90;;;;;;5110699;28;20602;-78
2024/03/11 11:33:08;;;;;;;19.70;10.07;;;4.80;99.90;;;;;;5097007;28;20195;-79
2024/03/11 11:35:56;;;;;;;20.03;11.17;;;4.70;99.90;;;;;;5113415;28;20226;-79
2024/03/11 11:38:45;;;;;;;20.70;10.47;;;4.80;99.90;;;;;;5100671;28;20252;-79
2024/03/11 11:41:45;;;;;;;19.13;10.90;;;4.70;99.90;;;;;;5114576;28;20279;-79
2024/03/11 11:44:36;;;;;;;21.23;10.80;;;4.60;99.90;;;;;;5100159;28;20200;-78
2024/03/11 11:47:27;;;;;;;20.87;10.20;;;4.60;99.90;;;;;;5115575;28;20226;-78
2024/03/11 11:50:26;;;;;;;17.87;10.10;;;4.50;99.90;;;;;;5115056;28;20228;-78
2024/03/11 11:53:29;;;;;;;19.77;10.63;;;4.40;99.90;;;;;;5114185;28;20267;-78
2024/03/11 11:56:21;;;;;;;19.70;10.70;;;4.40;99.90;;;;;;5114500;28;20193;-78
2024/03/11 11:59:09;;;;;;;18.30;10.27;;;4.40;99.90;;;;;;5100854;28;20282;-78
2024/03/11 12:02:00;;;;;;;19.60;10.40;;;4.40;99.90;;;;;;5114871;28;20203;-79
2024/03/11 12:04:48;;;;;;;19.33;10.33;;;4.40;99.90;;;;;;5114402;28;20215;-79
2024/03/11 12:07:38;;;;;;;20.80;10.10;;;4.40;99.90;;;;;;5114499;28;20191;-79
2024/03/11 12:10:26;;;;;;;16.67;9.47;;;4.40;99.90;;;;;;5114502;28;20237;-78
2024/03/11 12:13:17;;;;;;;19.53;10.60;;;4.50;99.90;;;;;;5114257;28;20193;-78
2024/03/11 12:16:20;;;;;;;18.87;10.60;;;4.50;99.90;;;;;;5116483;28;20648;-78
2024/03/11 12:19:11;;;;;;;22.10;10.20;;;4.60;99.90;;;;;;5114404;28;20680;-79
2024/03/11 12:21:58;;;;;;;18.20;10.10;;;4.70;99.90;;;;;;5115992;28;20199;-79
2024/03/11 12:24:46;;;;;;;19.37;9.37;;;4.60;99.90;;;;;;5113539;28;20206;-78
2024/03/11 12:27:34;;;;;;;18.63;9.97;;;4.60;99.90;;;;;;5099155;28;20194;-79
2024/03/11 12:30:27;;;;;;;21.17;9.97;;;4.60;99.90;;;;;;5114690;28;20220;-78
2024/03/11 12:33:16;;;;;;;18.73;9.67;;;4.70;99.90;;;;;;5114793;28;20191;-78
2024/03/11 12:36:05;;;;;;;17.43;9.63;;;4.70;99.90;;;;;;5114623;28;20198;-79
2024/03/11 12:38:53;;;;;;;16.97;9.37;;;4.80;99.90;;;;;;5113817;28;20283;-78
2024/03/11 12:41:44;;;;;;;20.60;10.40;;;4.70;99.90;;;;;;5114529;28;20281;-78
2024/03/11 12:44:31;;;;;;;19.97;9.73;;;4.80;99.90;;;;;;5114981;28;20202;-78
2024/03/11 12:47:20;;;;;;;17.57;8.77;;;4.80;99.90;;;;;;5113795;28;20195;-78
2024/03/11 12:50:11;;;;;;;16.77;9.50;;;4.90;99.90;;;;;;5114017;28;20289;-77
2024/03/11 12:53:07;;;;;;;19.40;9.10;;;4.90;99.90;;;;;;5113611;28;20321;-78
2024/03/11 12:56:12;;;;;;;17.77;9.57;;;4.90;99.90;;;;;;5113960;28;20699;-78
2024/03/11 12:59:05;;;;;;;16.43;8.23;;;4.90;99.90;;;;;;5114250;28;20183;-77
2024/03/11 13:02:10;;;;;;;15.13;8.77;;;4.80;99.90;;;;;;5113296;28;20239;-78
2024/03/11 13:05:11;;;;;;;17.53;9.50;;;4.90;99.90;;;;;;5112593;28;20226;-77
2024/03/11 13:08:04;;;;;;;19.47;9.07;;;4.90;99.90;;;;;;5113074;28;20199;-77
2024/03/11 13:11:09;;;;;;;17.60;9.30;;;5.00;99.90;;;;;;5114050;28;20226;-77
2024/03/11 13:13:57;;;;;;;17.50;8.87;;;5.20;99.90;;;;;;5113932;28;20698;-77
2024/03/11 13:16:45;;;;;;;16.43;8.97;;;5.20;99.90;;;;;;5114348;28;20195;-77
2024/03/11 13:19:35;;;;;;;18.17;8.37;;;5.30;99.90;;;;;;5099220;28;20574;-77
2024/03/11 13:22:23;;;;;;;17.10;9.40;;;5.30;99.90;;;;;;5113811;28;20279;-78
2024/03/11 13:25:10;;;;;;;19.57;9.27;;;5.30;99.90;;;;;;5113276;28;20228;-77
2024/03/11 13:27:57;;;;;;;17.17;9.10;;;5.40;99.90;;;;;;5113594;28;20192;-77
2024/03/11 13:30:46;;;;;;;18.57;9.23;;;5.40;99.90;;;;;;5098386;28;20593;-77
2024/03/11 13:33:41;;;;;;;14.57;8.47;;;5.40;99.90;;;;;;5099639;28;20674;-77
2024/03/11 13:36:28;;;;;;;16.10;8.70;;;5.50;99.90;;;;;;5111123;28;20610;-77
2024/03/11 13:39:17;;;;;;;15.73;8.97;;;5.60;99.90;;;;;;5097704;28;20460;-77
2024/03/11 13:42:08;;;;;;;18.70;9.07;;;5.60;99.90;;;;;;5111885;28;20651;-77
2024/03/11 13:44:55;;;;;;;21.40;8.97;;;5.60;99.90;;;;;;5112890;28;20326;-77
2024/03/11 13:47:43;;;;;;;18.17;8.80;;;5.60;99.90;;;;;;5112532;28;20671;-77
2024/03/11 13:50:33;;;;;;;17.13;8.80;;;5.60;99.90;;;;;;5113063;28;20297;-77
2024/03/11 13:53:21;;;;;;;17.27;9.07;;;5.70;99.90;;;;;;5112707;28;20237;-77
2024/03/11 13:56:10;;;;;;;17.00;8.57;;;5.80;99.90;;;;;;5114875;28;20196;-76
2024/03/11 13:59:00;;;;;;;15.87;8.57;;;5.80;99.90;;;;;;5111611;28;20362;-77
2024/03/11 14:01:50;;;;;;;15.63;8.30;;;5.80;99.90;;;;;;5096935;28;20207;-77
2024/03/11 14:04:38;;;;;;;16.17;8.80;;;5.90;99.90;;;;;;5111706;28;20289;-77
2024/03/11 14:07:26;;;;;;;18.77;9.10;;;5.90;99.90;;;;;;5111944;28;20188;-77
2024/03/11 14:10:15;;;;;;;16.37;8.70;;;5.90;99.90;;;;;;5111850;28;20293;-77
2024/03/11 14:13:03;;;;;;;18.83;9.23;;;5.90;99.90;;;;;;5111575;28;20187;-77
2024/03/11 14:15:51;;;;;;;14.53;8.37;;;5.90;99.90;;;;;;5112760;28;20563;-77
2024/03/11 14:18:39;;;;;;;15.80;9.17;;;5.90;99.90;;;;;;5112056;28;20253;-77
2024/03/11 14:21:27;;;;;;;17.37;8.80;;;6.00;99.90;;;;;;5111794;28;20189;-77
2024/03/11 14:24:15;;;;;;;16.13;8.63;;;6.00;99.90;;;;;;5112321;28;20214;-77
2024/03/11 14:27:03;;;;;;;16.80;8.53;;;5.90;99.90;;;;;;5111524;28;20188;-77
2024/03/11 14:29:50;;;;;;;19.00;9.03;;;6.00;99.90;;;;;;5112183;28;20192;-77
2024/03/11 14:32:38;;;;;;;17.90;9.20;;;6.00;99.90;;;;;;5112417;28;20268;-77
2024/03/11 14:35:27;;;;;;;16.00;8.77;;;6.00;99.90;;;;;;5111678;28;20223;-77
2024/03/11 14:38:22;;;;;;;17.37;8.83;;;6.00;99.90;;;;;;5112039;28;20230;-77